sensor_id;sensor_type;location;lat;lon;timestamp;P1;durP1;ratioP1;P2;durP2;ratioP2
24761;SDS011;12865;51.934;10.330;2022-07-23T00:02:16;7.70;;;6.03;;
24761;SDS011;12865;51.934;10.330;2022-07-23T00:05:01;6.00;;;5.40;;
24761;SDS011;12865;51.934;10.330;2022-07-23T00:07:47;6.55;;;5.10;;
24761;SDS011;12865;51.934;10.330;2022-07-23T00:10:33;9.82;;;5.93;;
24761;SDS011;12865;51.934;10.330;2022-07-23T00:13:19;6.00;;;5.43;;
24761;SDS011;12865;51.934;10.330;2022-07-23T00:16:05;8.07;;;5.80;;
24761;SDS011;12865;51.934;10.330;2022-07-23T00:18:51;6.50;;;5.90;;
24761;SDS011;12865;51.934;10.330;2022-07-23T00:21:37;10.43;;;6.60;;
24761;SDS011;12865;51.934;10.330;2022-07-23T00:24:22;7.75;;;6.93;;
24761;SDS011;12865;51.934;10.330;2022-07-23T00:27:08;8.57;;;7.32;;
24761;SDS011;12865;51.934;10.330;2022-07-23T00:29:54;9.93;;;7.05;;
24761;SDS011;12865;51.934;10.330;2022-07-23T00:32:49;8.15;;;7.35;;
24761;SDS011;12865;51.934;10.330;2022-07-23T00:35:37;8.40;;;7.07;;
24761;SDS011;12865;51.934;10.330;2022-07-23T00:38:25;9.48;;;6.80;;
24761;SDS011;12865;51.934;10.330;2022-07-23T00:41:11;8.70;;;7.13;;
24761;SDS011;12865;51.934;10.330;2022-07-23T00:44:13;7.85;;;6.25;;
24761;SDS011;12865;51.934;10.330;2022-07-23T00:47:00;6.45;;;5.85;;
24761;SDS011;12865;51.934;10.330;2022-07-23T00:49:46;7.25;;;6.45;;
24761;SDS011;12865;51.934;10.330;2022-07-23T00:52:32;11.18;;;6.10;;
24761;SDS011;12865;51.934;10.330;2022-07-23T00:55:19;10.93;;;7.55;;
24761;SDS011;12865;51.934;10.330;2022-07-23T00:58:05;12.15;;;7.57;;
24761;SDS011;12865;51.934;10.330;2022-07-23T01:00:51;12.57;;;8.27;;
24761;SDS011;12865;51.934;10.330;2022-07-23T01:03:37;10.68;;;7.65;;
24761;SDS011;12865;51.934;10.330;2022-07-23T01:06:22;10.13;;;7.95;;
24761;SDS011;12865;51.934;10.330;2022-07-23T01:09:08;11.25;;;7.03;;
24761;SDS011;12865;51.934;10.330;2022-07-23T01:11:54;8.02;;;7.22;;
24761;SDS011;12865;51.934;10.330;2022-07-23T01:14:40;8.93;;;7.95;;
24761;SDS011;12865;51.934;10.330;2022-07-23T01:17:26;8.70;;;7.85;;
24761;SDS011;12865;51.934;10.330;2022-07-23T01:20:11;9.23;;;8.20;;
24761;SDS011;12865;51.934;10.330;2022-07-23T01:22:57;9.82;;;7.28;;
24761;SDS011;12865;51.934;10.330;2022-07-23T01:25:47;11.38;;;8.00;;
24761;SDS011;12865;51.934;10.330;2022-07-23T01:28:40;8.15;;;7.35;;
24761;SDS011;12865;51.934;10.330;2022-07-23T01:31:26;9.02;;;7.90;;
24761;SDS011;12865;51.934;10.330;2022-07-23T01:34:11;8.82;;;6.88;;
24761;SDS011;12865;51.934;10.330;2022-07-23T01:36:57;7.90;;;6.90;;
24761;SDS011;12865;51.934;10.330;2022-07-23T01:39:43;7.90;;;6.97;;
24761;SDS011;12865;51.934;10.330;2022-07-23T01:42:29;8.32;;;7.47;;
24761;SDS011;12865;51.934;10.330;2022-07-23T01:45:14;9.85;;;6.95;;
24761;SDS011;12865;51.934;10.330;2022-07-23T01:48:00;7.68;;;6.72;;
24761;SDS011;12865;51.934;10.330;2022-07-23T01:50:46;9.13;;;8.32;;
24761;SDS011;12865;51.934;10.330;2022-07-23T01:53:33;8.85;;;7.53;;
24761;SDS011;12865;51.934;10.330;2022-07-23T01:56:19;10.50;;;8.30;;
24761;SDS011;12865;51.934;10.330;2022-07-23T01:59:06;9.63;;;8.10;;
24761;SDS011;12865;51.934;10.330;2022-07-23T02:01:52;9.68;;;7.80;;
24761;SDS011;12865;51.934;10.330;2022-07-23T02:04:37;8.18;;;7.28;;
24761;SDS011;12865;51.934;10.330;2022-07-23T02:07:23;9.00;;;8.10;;
24761;SDS011;12865;51.934;10.330;2022-07-23T02:10:09;8.30;;;7.10;;
24761;SDS011;12865;51.934;10.330;2022-07-23T02:12:54;7.50;;;6.88;;
24761;SDS011;12865;51.934;10.330;2022-07-23T02:15:41;8.65;;;7.57;;
24761;SDS011;12865;51.934;10.330;2022-07-23T02:18:27;8.95;;;8.05;;
24761;SDS011;12865;51.934;10.330;2022-07-23T02:21:12;8.27;;;7.45;;
24761;SDS011;12865;51.934;10.330;2022-07-23T02:23:58;9.65;;;7.75;;
24761;SDS011;12865;51.934;10.330;2022-07-23T02:26:44;9.40;;;8.38;;
24761;SDS011;12865;51.934;10.330;2022-07-23T02:29:29;9.73;;;8.82;;
24761;SDS011;12865;51.934;10.330;2022-07-23T02:32:15;8.88;;;8.10;;
24761;SDS011;12865;51.934;10.330;2022-07-23T02:35:01;9.25;;;8.35;;
24761;SDS011;12865;51.934;10.330;2022-07-23T02:37:48;8.10;;;7.18;;
24761;SDS011;12865;51.934;10.330;2022-07-23T02:40:33;8.45;;;7.63;;
24761;SDS011;12865;51.934;10.330;2022-07-23T02:43:19;8.95;;;8.02;;
24761;SDS011;12865;51.934;10.330;2022-07-23T02:46:05;10.27;;;8.27;;
24761;SDS011;12865;51.934;10.330;2022-07-23T02:48:51;9.48;;;7.88;;
24761;SDS011;12865;51.934;10.330;2022-07-23T02:51:36;9.90;;;8.32;;
24761;SDS011;12865;51.934;10.330;2022-07-23T02:54:22;9.45;;;8.45;;
24761;SDS011;12865;51.934;10.330;2022-07-23T02:57:07;9.18;;;8.38;;
24761;SDS011;12865;51.934;10.330;2022-07-23T02:59:53;10.00;;;8.27;;
24761;SDS011;12865;51.934;10.330;2022-07-23T03:02:39;9.25;;;8.35;;
24761;SDS011;12865;51.934;10.330;2022-07-23T03:05:25;11.07;;;8.73;;
24761;SDS011;12865;51.934;10.330;2022-07-23T03:08:10;10.07;;;9.02;;
24761;SDS011;12865;51.934;10.330;2022-07-23T03:10:56;13.30;;;9.45;;
24761;SDS011;12865;51.934;10.330;2022-07-23T03:13:42;10.73;;;9.63;;
24761;SDS011;12865;51.934;10.330;2022-07-23T03:16:28;12.27;;;9.35;;
24761;SDS011;12865;51.934;10.330;2022-07-23T03:19:13;12.27;;;9.68;;
24761;SDS011;12865;51.934;10.330;2022-07-23T03:21:59;11.02;;;9.98;;
24761;SDS011;12865;51.934;10.330;2022-07-23T03:24:45;10.55;;;9.48;;
24761;SDS011;12865;51.934;10.330;2022-07-23T03:27:39;10.63;;;9.32;;
24761;SDS011;12865;51.934;10.330;2022-07-23T03:30:25;11.82;;;9.88;;
24761;SDS011;12865;51.934;10.330;2022-07-23T03:33:11;11.65;;;10.25;;
24761;SDS011;12865;51.934;10.330;2022-07-23T03:35:56;11.10;;;9.77;;
24761;SDS011;12865;51.934;10.330;2022-07-23T03:38:42;10.27;;;9.27;;
24761;SDS011;12865;51.934;10.330;2022-07-23T03:41:28;14.63;;;10.88;;
24761;SDS011;12865;51.934;10.330;2022-07-23T03:44:13;11.45;;;10.35;;
24761;SDS011;12865;51.934;10.330;2022-07-23T03:46:59;11.80;;;10.60;;
24761;SDS011;12865;51.934;10.330;2022-07-23T03:49:45;14.00;;;11.55;;
24761;SDS011;12865;51.934;10.330;2022-07-23T03:52:31;10.65;;;9.35;;
24761;SDS011;12865;51.934;10.330;2022-07-23T03:55:16;13.07;;;8.82;;
24761;SDS011;12865;51.934;10.330;2022-07-23T03:58:02;10.95;;;9.30;;
24761;SDS011;12865;51.934;10.330;2022-07-23T04:00:48;11.23;;;9.68;;
24761;SDS011;12865;51.934;10.330;2022-07-23T04:03:34;14.27;;;8.98;;
24761;SDS011;12865;51.934;10.330;2022-07-23T04:06:19;12.00;;;10.80;;
24761;SDS011;12865;51.934;10.330;2022-07-23T04:09:05;16.52;;;11.10;;
24761;SDS011;12865;51.934;10.330;2022-07-23T04:11:51;11.32;;;10.15;;
24761;SDS011;12865;51.934;10.330;2022-07-23T04:14:36;11.40;;;10.27;;
24761;SDS011;12865;51.934;10.330;2022-07-23T04:17:22;11.88;;;10.60;;
24761;SDS011;12865;51.934;10.330;2022-07-23T04:20:08;12.82;;;10.65;;
24761;SDS011;12865;51.934;10.330;2022-07-23T04:22:54;12.50;;;11.30;;
24761;SDS011;12865;51.934;10.330;2022-07-23T04:25:40;13.77;;;11.73;;
24761;SDS011;12865;51.934;10.330;2022-07-23T04:28:25;12.57;;;10.73;;
24761;SDS011;12865;51.934;10.330;2022-07-23T04:31:11;14.50;;;10.82;;
24761;SDS011;12865;51.934;10.330;2022-07-23T04:33:57;14.32;;;11.93;;
24761;SDS011;12865;51.934;10.330;2022-07-23T04:36:42;12.07;;;10.85;;
24761;SDS011;12865;51.934;10.330;2022-07-23T04:39:28;14.02;;;10.55;;
24761;SDS011;12865;51.934;10.330;2022-07-23T04:42:14;12.45;;;11.23;;
24761;SDS011;12865;51.934;10.330;2022-07-23T04:45:00;12.55;;;11.02;;
24761;SDS011;12865;51.934;10.330;2022-07-23T04:47:45;15.48;;;11.65;;
24761;SDS011;12865;51.934;10.330;2022-07-23T04:50:32;15.55;;;11.63;;
24761;SDS011;12865;51.934;10.330;2022-07-23T04:53:18;16.55;;;12.55;;
24761;SDS011;12865;51.934;10.330;2022-07-23T04:56:05;18.63;;;13.00;;
24761;SDS011;12865;51.934;10.330;2022-07-23T04:58:51;17.67;;;12.73;;
24761;SDS011;12865;51.934;10.330;2022-07-23T05:01:36;16.45;;;12.82;;
24761;SDS011;12865;51.934;10.330;2022-07-23T05:04:22;14.88;;;12.05;;
24761;SDS011;12865;51.934;10.330;2022-07-23T05:07:08;14.95;;;11.90;;
24761;SDS011;12865;51.934;10.330;2022-07-23T05:09:53;17.60;;;12.82;;
24761;SDS011;12865;51.934;10.330;2022-07-23T05:12:39;14.10;;;11.90;;
24761;SDS011;12865;51.934;10.330;2022-07-23T05:15:25;14.48;;;11.98;;
24761;SDS011;12865;51.934;10.330;2022-07-23T05:18:10;14.05;;;12.23;;
24761;SDS011;12865;51.934;10.330;2022-07-23T05:20:56;15.80;;;12.50;;
24761;SDS011;12865;51.934;10.330;2022-07-23T05:23:42;16.73;;;11.80;;
24761;SDS011;12865;51.934;10.330;2022-07-23T05:26:28;13.35;;;12.00;;
24761;SDS011;12865;51.934;10.330;2022-07-23T05:29:13;17.20;;;12.48;;
24761;SDS011;12865;51.934;10.330;2022-07-23T05:31:59;16.17;;;12.88;;
24761;SDS011;12865;51.934;10.330;2022-07-23T05:34:45;14.88;;;13.18;;
24761;SDS011;12865;51.934;10.330;2022-07-23T05:37:30;12.93;;;11.63;;
24761;SDS011;12865;51.934;10.330;2022-07-23T05:40:16;13.13;;;11.80;;
24761;SDS011;12865;51.934;10.330;2022-07-23T05:43:02;13.48;;;11.43;;
24761;SDS011;12865;51.934;10.330;2022-07-23T05:45:47;12.15;;;10.88;;
24761;SDS011;12865;51.934;10.330;2022-07-23T05:48:33;12.65;;;11.35;;
24761;SDS011;12865;51.934;10.330;2022-07-23T05:51:19;15.85;;;11.52;;
24761;SDS011;12865;51.934;10.330;2022-07-23T05:54:06;14.90;;;11.40;;
24761;SDS011;12865;51.934;10.330;2022-07-23T05:56:52;15.50;;;11.20;;
24761;SDS011;12865;51.934;10.330;2022-07-23T05:59:38;12.63;;;11.32;;
24761;SDS011;12865;51.934;10.330;2022-07-23T06:02:24;14.80;;;11.82;;
24761;SDS011;12865;51.934;10.330;2022-07-23T06:05:09;18.92;;;12.27;;
24761;SDS011;12865;51.934;10.330;2022-07-23T06:07:55;15.88;;;11.80;;
24761;SDS011;12865;51.934;10.330;2022-07-23T06:10:41;17.85;;;13.38;;
24761;SDS011;12865;51.934;10.330;2022-07-23T06:13:27;21.45;;;13.50;;
24761;SDS011;12865;51.934;10.330;2022-07-23T06:16:12;17.25;;;13.15;;
24761;SDS011;12865;51.934;10.330;2022-07-23T06:18:58;17.92;;;13.27;;
24761;SDS011;12865;51.934;10.330;2022-07-23T06:21:44;20.20;;;12.90;;
24761;SDS011;12865;51.934;10.330;2022-07-23T06:24:29;19.33;;;13.77;;
24761;SDS011;12865;51.934;10.330;2022-07-23T06:27:15;20.60;;;13.20;;
24761;SDS011;12865;51.934;10.330;2022-07-23T06:30:01;19.33;;;13.30;;
24761;SDS011;12865;51.934;10.330;2022-07-23T06:32:47;13.75;;;12.25;;
24761;SDS011;12865;51.934;10.330;2022-07-23T06:35:34;14.45;;;12.30;;
24761;SDS011;12865;51.934;10.330;2022-07-23T06:38:19;19.63;;;12.77;;
24761;SDS011;12865;51.934;10.330;2022-07-23T06:41:05;17.85;;;12.20;;
24761;SDS011;12865;51.934;10.330;2022-07-23T06:43:51;16.92;;;12.95;;
24761;SDS011;12865;51.934;10.330;2022-07-23T06:46:37;16.15;;;13.18;;
24761;SDS011;12865;51.934;10.330;2022-07-23T06:49:22;17.50;;;13.43;;
24761;SDS011;12865;51.934;10.330;2022-07-23T06:52:08;17.20;;;13.73;;
24761;SDS011;12865;51.934;10.330;2022-07-23T06:54:54;21.13;;;12.65;;
24761;SDS011;12865;51.934;10.330;2022-07-23T06:57:40;14.90;;;12.40;;
24761;SDS011;12865;51.934;10.330;2022-07-23T07:00:25;18.35;;;12.23;;
24761;SDS011;12865;51.934;10.330;2022-07-23T07:03:11;19.25;;;12.23;;
24761;SDS011;12865;51.934;10.330;2022-07-23T07:05:57;15.60;;;10.75;;
24761;SDS011;12865;51.934;10.330;2022-07-23T07:08:43;16.75;;;11.63;;
24761;SDS011;12865;51.934;10.330;2022-07-23T07:11:29;10.50;;;9.32;;
24761;SDS011;12865;51.934;10.330;2022-07-23T07:14:14;10.40;;;8.93;;
24761;SDS011;12865;51.934;10.330;2022-07-23T07:17:00;12.50;;;8.10;;
24761;SDS011;12865;51.934;10.330;2022-07-23T07:19:46;10.25;;;7.72;;
24761;SDS011;12865;51.934;10.330;2022-07-23T07:22:32;10.10;;;7.53;;
24761;SDS011;12865;51.934;10.330;2022-07-23T07:25:17;9.40;;;7.78;;
24761;SDS011;12865;51.934;10.330;2022-07-23T07:28:03;12.52;;;8.25;;
24761;SDS011;12865;51.934;10.330;2022-07-23T07:30:49;10.80;;;8.98;;
24761;SDS011;12865;51.934;10.330;2022-07-23T07:33:35;9.45;;;7.13;;
24761;SDS011;12865;51.934;10.330;2022-07-23T07:36:20;9.45;;;7.57;;
24761;SDS011;12865;51.934;10.330;2022-07-23T07:39:06;8.88;;;7.57;;
24761;SDS011;12865;51.934;10.330;2022-07-23T07:41:52;13.90;;;6.97;;
24761;SDS011;12865;51.934;10.330;2022-07-23T07:44:37;8.80;;;6.15;;
24761;SDS011;12865;51.934;10.330;2022-07-23T07:47:23;10.85;;;6.45;;
24761;SDS011;12865;51.934;10.330;2022-07-23T07:50:09;9.48;;;6.13;;
24761;SDS011;12865;51.934;10.330;2022-07-23T07:52:55;7.97;;;6.22;;
24761;SDS011;12865;51.934;10.330;2022-07-23T07:55:41;7.53;;;6.10;;
24761;SDS011;12865;51.934;10.330;2022-07-23T07:58:27;8.65;;;6.55;;
24761;SDS011;12865;51.934;10.330;2022-07-23T08:01:12;9.00;;;6.07;;
24761;SDS011;12865;51.934;10.330;2022-07-23T08:03:58;8.55;;;6.43;;
24761;SDS011;12865;51.934;10.330;2022-07-23T08:06:44;6.85;;;5.85;;
24761;SDS011;12865;51.934;10.330;2022-07-23T08:09:30;7.28;;;5.97;;
24761;SDS011;12865;51.934;10.330;2022-07-23T08:12:15;7.82;;;5.45;;
24761;SDS011;12865;51.934;10.330;2022-07-23T08:15:01;5.05;;;4.45;;
24761;SDS011;12865;51.934;10.330;2022-07-23T08:17:47;5.88;;;3.78;;
24761;SDS011;12865;51.934;10.330;2022-07-23T08:20:34;4.18;;;3.63;;
24761;SDS011;12865;51.934;10.330;2022-07-23T08:23:20;8.23;;;4.07;;
24761;SDS011;12865;51.934;10.330;2022-07-23T08:26:05;8.38;;;4.15;;
24761;SDS011;12865;51.934;10.330;2022-07-23T08:28:52;3.88;;;3.53;;
24761;SDS011;12865;51.934;10.330;2022-07-23T08:31:37;6.20;;;3.78;;
24761;SDS011;12865;51.934;10.330;2022-07-23T08:34:25;4.97;;;3.83;;
24761;SDS011;12865;51.934;10.330;2022-07-23T08:37:11;5.90;;;4.10;;
24761;SDS011;12865;51.934;10.330;2022-07-23T08:39:56;5.95;;;4.40;;
24761;SDS011;12865;51.934;10.330;2022-07-23T08:42:42;9.82;;;5.07;;
24761;SDS011;12865;51.934;10.330;2022-07-23T08:45:28;6.43;;;4.03;;
24761;SDS011;12865;51.934;10.330;2022-07-23T08:48:15;5.18;;;4.15;;
24761;SDS011;12865;51.934;10.330;2022-07-23T08:53:49;8.20;;;4.38;;
24761;SDS011;12865;51.934;10.330;2022-07-23T08:56:35;4.78;;;3.75;;
24761;SDS011;12865;51.934;10.330;2022-07-23T08:59:21;7.63;;;4.78;;
24761;SDS011;12865;51.934;10.330;2022-07-23T09:02:07;7.80;;;4.63;;
24761;SDS011;12865;51.934;10.330;2022-07-23T09:04:52;6.43;;;3.72;;
24761;SDS011;12865;51.934;10.330;2022-07-23T09:08:02;5.18;;;3.90;;
24761;SDS011;12865;51.934;10.330;2022-07-23T09:11:03;5.45;;;4.15;;
24761;SDS011;12865;51.934;10.330;2022-07-23T09:13:54;5.28;;;3.67;;
24761;SDS011;12865;51.934;10.330;2022-07-23T09:16:43;4.75;;;4.15;;
24761;SDS011;12865;51.934;10.330;2022-07-23T09:19:29;6.88;;;3.83;;
24761;SDS011;12865;51.934;10.330;2022-07-23T09:22:18;15.85;;;9.85;;
24761;SDS011;12865;51.934;10.330;2022-07-23T09:25:12;5.65;;;5.00;;
24761;SDS011;12865;51.934;10.330;2022-07-23T09:28:00;4.97;;;4.38;;
24761;SDS011;12865;51.934;10.330;2022-07-23T09:30:48;4.90;;;3.60;;
24761;SDS011;12865;51.934;10.330;2022-07-23T09:33:36;4.38;;;3.67;;
24761;SDS011;12865;51.934;10.330;2022-07-23T09:36:28;4.50;;;3.20;;
24761;SDS011;12865;51.934;10.330;2022-07-23T09:39:16;4.53;;;3.35;;
24761;SDS011;12865;51.934;10.330;2022-07-23T09:42:13;3.45;;;3.15;;
24761;SDS011;12865;51.934;10.330;2022-07-23T09:44:59;3.03;;;2.83;;
24761;SDS011;12865;51.934;10.330;2022-07-23T09:47:46;4.07;;;3.33;;
24761;SDS011;12865;51.934;10.330;2022-07-23T09:50:32;3.63;;;3.10;;
24761;SDS011;12865;51.934;10.330;2022-07-23T09:53:24;4.90;;;2.90;;
24761;SDS011;12865;51.934;10.330;2022-07-23T09:56:11;6.60;;;2.88;;
24761;SDS011;12865;51.934;10.330;2022-07-23T09:59:00;3.42;;;2.95;;
24761;SDS011;12865;51.934;10.330;2022-07-23T10:02:00;4.80;;;2.88;;
24761;SDS011;12865;51.934;10.330;2022-07-23T10:04:47;4.25;;;3.15;;
24761;SDS011;12865;51.934;10.330;2022-07-23T10:07:34;5.13;;;3.58;;
24761;SDS011;12865;51.934;10.330;2022-07-23T10:10:22;5.75;;;3.45;;
24761;SDS011;12865;51.934;10.330;2022-07-23T10:13:12;7.95;;;3.05;;
24761;SDS011;12865;51.934;10.330;2022-07-23T10:16:08;4.70;;;3.22;;
24761;SDS011;12865;51.934;10.330;2022-07-23T10:18:54;3.50;;;2.80;;
24761;SDS011;12865;51.934;10.330;2022-07-23T10:21:41;3.85;;;2.92;;
24761;SDS011;12865;51.934;10.330;2022-07-23T10:33:32;4.50;;;2.77;;
24761;SDS011;12865;51.934;10.330;2022-07-23T10:36:42;2.95;;;2.75;;
24761;SDS011;12865;51.934;10.330;2022-07-23T10:39:32;3.53;;;2.97;;
24761;SDS011;12865;51.934;10.330;2022-07-23T10:42:18;4.00;;;2.95;;
24761;SDS011;12865;51.934;10.330;2022-07-23T10:51:07;4.45;;;2.83;;
24761;SDS011;12865;51.934;10.330;2022-07-23T10:53:57;3.58;;;2.70;;
24761;SDS011;12865;51.934;10.330;2022-07-23T11:02:59;2.97;;;2.50;;
24761;SDS011;12865;51.934;10.330;2022-07-23T11:05:52;5.75;;;2.42;;
24761;SDS011;12865;51.934;10.330;2022-07-23T11:08:38;3.22;;;2.28;;
24761;SDS011;12865;51.934;10.330;2022-07-23T11:11:24;3.28;;;2.17;;
24761;SDS011;12865;51.934;10.330;2022-07-23T11:14:12;3.85;;;2.65;;
24761;SDS011;12865;51.934;10.330;2022-07-23T11:16:57;3.17;;;2.55;;
24761;SDS011;12865;51.934;10.330;2022-07-23T11:22:58;3.05;;;2.10;;
24761;SDS011;12865;51.934;10.330;2022-07-23T11:25:44;2.42;;;2.17;;
24761;SDS011;12865;51.934;10.330;2022-07-23T11:28:31;3.22;;;2.20;;
24761;SDS011;12865;51.934;10.330;2022-07-23T11:31:17;4.07;;;2.10;;
24761;SDS011;12865;51.934;10.330;2022-07-23T11:37:53;3.88;;;2.35;;
24761;SDS011;12865;51.934;10.330;2022-07-23T11:40:32;4.50;;;2.22;;
24761;SDS011;12865;51.934;10.330;2022-07-23T11:43:19;2.40;;;2.20;;
24761;SDS011;12865;51.934;10.330;2022-07-23T11:46:09;2.88;;;2.58;;
24761;SDS011;12865;51.934;10.330;2022-07-23T11:49:02;3.55;;;2.50;;
24761;SDS011;12865;51.934;10.330;2022-07-23T11:52:01;4.25;;;2.60;;
24761;SDS011;12865;51.934;10.330;2022-07-23T11:54:59;3.80;;;2.17;;
24761;SDS011;12865;51.934;10.330;2022-07-23T11:57:53;3.58;;;2.15;;
24761;SDS011;12865;51.934;10.330;2022-07-23T12:00:39;5.47;;;2.40;;
24761;SDS011;12865;51.934;10.330;2022-07-23T12:03:27;2.88;;;2.40;;
24761;SDS011;12865;51.934;10.330;2022-07-23T12:06:12;2.78;;;1.80;;
24761;SDS011;12865;51.934;10.330;2022-07-23T12:08:58;3.70;;;2.20;;
24761;SDS011;12865;51.934;10.330;2022-07-23T12:11:57;4.50;;;2.15;;
24761;SDS011;12865;51.934;10.330;2022-07-23T12:14:47;3.13;;;1.77;;
24761;SDS011;12865;51.934;10.330;2022-07-23T12:17:35;2.20;;;2.00;;
24761;SDS011;12865;51.934;10.330;2022-07-23T12:20:23;2.45;;;1.98;;
24761;SDS011;12865;51.934;10.330;2022-07-23T12:26:00;2.53;;;2.20;;
24761;SDS011;12865;51.934;10.330;2022-07-23T12:28:51;2.30;;;2.10;;
24761;SDS011;12865;51.934;10.330;2022-07-23T12:31:38;2.70;;;2.30;;
24761;SDS011;12865;51.934;10.330;2022-07-23T12:34:24;3.67;;;2.40;;
24761;SDS011;12865;51.934;10.330;2022-07-23T12:37:27;3.17;;;1.83;;
24761;SDS011;12865;51.934;10.330;2022-07-23T12:40:24;2.10;;;1.90;;
24761;SDS011;12865;51.934;10.330;2022-07-23T12:43:18;2.63;;;1.90;;
24761;SDS011;12865;51.934;10.330;2022-07-23T12:46:09;3.78;;;2.10;;
24761;SDS011;12865;51.934;10.330;2022-07-23T12:48:55;3.15;;;2.17;;
24761;SDS011;12865;51.934;10.330;2022-07-23T12:51:42;2.70;;;2.03;;
24761;SDS011;12865;51.934;10.330;2022-07-23T12:54:27;2.30;;;1.75;;
24761;SDS011;12865;51.934;10.330;2022-07-23T12:57:14;2.03;;;1.73;;
24761;SDS011;12865;51.934;10.330;2022-07-23T13:00:09;3.75;;;1.90;;
24761;SDS011;12865;51.934;10.330;2022-07-23T13:02:55;2.47;;;1.80;;
24761;SDS011;12865;51.934;10.330;2022-07-23T13:05:41;3.97;;;2.15;;
24761;SDS011;12865;51.934;10.330;2022-07-23T13:08:27;2.65;;;1.80;;
24761;SDS011;12865;51.934;10.330;2022-07-23T13:11:15;3.13;;;1.80;;
24761;SDS011;12865;51.934;10.330;2022-07-23T13:14:01;4.38;;;2.20;;
24761;SDS011;12865;51.934;10.330;2022-07-23T13:16:47;2.55;;;2.05;;
24761;SDS011;12865;51.934;10.330;2022-07-23T13:19:37;2.63;;;1.92;;
24761;SDS011;12865;51.934;10.330;2022-07-23T13:22:23;3.30;;;1.80;;
24761;SDS011;12865;51.934;10.330;2022-07-23T13:25:08;2.40;;;1.77;;
24761;SDS011;12865;51.934;10.330;2022-07-23T13:27:54;3.25;;;1.70;;
24761;SDS011;12865;51.934;10.330;2022-07-23T13:30:40;2.75;;;1.60;;
24761;SDS011;12865;51.934;10.330;2022-07-23T13:33:26;3.78;;;1.80;;
24761;SDS011;12865;51.934;10.330;2022-07-23T13:36:12;3.67;;;1.75;;
24761;SDS011;12865;51.934;10.330;2022-07-23T13:38:58;5.35;;;2.10;;
24761;SDS011;12865;51.934;10.330;2022-07-23T13:41:43;2.00;;;1.70;;
24761;SDS011;12865;51.934;10.330;2022-07-23T13:44:29;2.72;;;1.58;;
24761;SDS011;12865;51.934;10.330;2022-07-23T13:47:15;2.60;;;1.65;;
24761;SDS011;12865;51.934;10.330;2022-07-23T13:50:01;3.90;;;1.60;;
24761;SDS011;12865;51.934;10.330;2022-07-23T13:52:46;3.00;;;1.70;;
24761;SDS011;12865;51.934;10.330;2022-07-23T13:55:32;2.30;;;1.73;;
24761;SDS011;12865;51.934;10.330;2022-07-23T13:58:19;2.03;;;1.73;;
24761;SDS011;12865;51.934;10.330;2022-07-23T14:01:05;3.90;;;1.65;;
24761;SDS011;12865;51.934;10.330;2022-07-23T14:03:50;3.05;;;1.75;;
24761;SDS011;12865;51.934;10.330;2022-07-23T14:06:36;3.03;;;1.60;;
24761;SDS011;12865;51.934;10.330;2022-07-23T14:09:22;2.60;;;1.80;;
24761;SDS011;12865;51.934;10.330;2022-07-23T14:12:08;4.20;;;1.33;;
24761;SDS011;12865;51.934;10.330;2022-07-23T14:14:54;1.95;;;1.00;;
24761;SDS011;12865;51.934;10.330;2022-07-23T14:17:41;1.85;;;1.40;;
24761;SDS011;12865;51.934;10.330;2022-07-23T14:20:28;2.95;;;1.88;;
24761;SDS011;12865;51.934;10.330;2022-07-23T14:23:13;2.88;;;1.67;;
24761;SDS011;12865;51.934;10.330;2022-07-23T14:25:59;1.52;;;1.42;;
24761;SDS011;12865;51.934;10.330;2022-07-23T14:28:45;2.88;;;1.63;;
24761;SDS011;12865;51.934;10.330;2022-07-23T14:31:30;2.47;;;1.50;;
24761;SDS011;12865;51.934;10.330;2022-07-23T14:34:16;1.90;;;1.65;;
24761;SDS011;12865;51.934;10.330;2022-07-23T14:37:03;1.60;;;1.40;;
24761;SDS011;12865;51.934;10.330;2022-07-23T14:39:48;1.30;;;1.15;;
24761;SDS011;12865;51.934;10.330;2022-07-23T14:42:34;2.10;;;1.38;;
24761;SDS011;12865;51.934;10.330;2022-07-23T14:45:20;1.50;;;1.40;;
24761;SDS011;12865;51.934;10.330;2022-07-23T14:48:05;3.00;;;1.20;;
24761;SDS011;12865;51.934;10.330;2022-07-23T14:50:51;1.30;;;1.20;;
24761;SDS011;12865;51.934;10.330;2022-07-23T14:53:37;1.52;;;1.38;;
24761;SDS011;12865;51.934;10.330;2022-07-23T14:56:22;1.20;;;1.10;;
24761;SDS011;12865;51.934;10.330;2022-07-23T14:59:08;2.20;;;1.35;;
24761;SDS011;12865;51.934;10.330;2022-07-23T15:01:54;2.03;;;1.20;;
24761;SDS011;12865;51.934;10.330;2022-07-23T15:04:40;2.55;;;1.30;;
24761;SDS011;12865;51.934;10.330;2022-07-23T15:07:26;1.85;;;1.30;;
24761;SDS011;12865;51.934;10.330;2022-07-23T15:10:12;4.00;;;1.30;;
24761;SDS011;12865;51.934;10.330;2022-07-23T15:12:58;2.28;;;1.30;;
24761;SDS011;12865;51.934;10.330;2022-07-23T15:15:43;1.23;;;1.13;;
24761;SDS011;12865;51.934;10.330;2022-07-23T15:18:29;2.80;;;1.30;;
24761;SDS011;12865;51.934;10.330;2022-07-23T15:21:15;2.97;;;1.50;;
24761;SDS011;12865;51.934;10.330;2022-07-23T15:24:01;1.95;;;1.50;;
24761;SDS011;12865;51.934;10.330;2022-07-23T15:26:47;2.78;;;1.25;;
24761;SDS011;12865;51.934;10.330;2022-07-23T15:29:32;2.80;;;1.25;;
24761;SDS011;12865;51.934;10.330;2022-07-23T15:32:18;2.90;;;1.50;;
24761;SDS011;12865;51.934;10.330;2022-07-23T15:35:04;4.13;;;1.40;;
24761;SDS011;12865;51.934;10.330;2022-07-23T15:37:52;1.25;;;1.20;;
24761;SDS011;12865;51.934;10.330;2022-07-23T15:40:38;1.40;;;1.30;;
24761;SDS011;12865;51.934;10.330;2022-07-23T15:43:24;1.38;;;1.15;;
24761;SDS011;12865;51.934;10.330;2022-07-23T15:46:10;2.25;;;1.20;;
24761;SDS011;12865;51.934;10.330;2022-07-23T15:48:56;2.50;;;1.20;;
24761;SDS011;12865;51.934;10.330;2022-07-23T15:51:41;1.35;;;1.27;;
24761;SDS011;12865;51.934;10.330;2022-07-23T15:54:27;1.58;;;1.48;;
24761;SDS011;12865;51.934;10.330;2022-07-23T15:57:13;2.50;;;1.30;;
24761;SDS011;12865;51.934;10.330;2022-07-23T15:59:59;2.05;;;1.30;;
24761;SDS011;12865;51.934;10.330;2022-07-23T16:02:45;2.92;;;1.55;;
24761;SDS011;12865;51.934;10.330;2022-07-23T16:05:30;2.63;;;1.60;;
24761;SDS011;12865;51.934;10.330;2022-07-23T16:08:17;1.83;;;1.15;;
24761;SDS011;12865;51.934;10.330;2022-07-23T16:11:03;1.10;;;1.08;;
24761;SDS011;12865;51.934;10.330;2022-07-23T16:13:48;1.30;;;1.20;;
24761;SDS011;12865;51.934;10.330;2022-07-23T16:16:34;2.35;;;1.42;;
24761;SDS011;12865;51.934;10.330;2022-07-23T16:19:20;1.33;;;1.00;;
24761;SDS011;12865;51.934;10.330;2022-07-23T16:22:06;1.17;;;1.05;;
24761;SDS011;12865;51.934;10.330;2022-07-23T16:24:51;1.05;;;1.02;;
24761;SDS011;12865;51.934;10.330;2022-07-23T16:27:38;1.42;;;0.90;;
24761;SDS011;12865;51.934;10.330;2022-07-23T16:30:24;3.60;;;1.55;;
24761;SDS011;12865;51.934;10.330;2022-07-23T16:33:10;3.40;;;1.27;;
24761;SDS011;12865;51.934;10.330;2022-07-23T16:35:56;2.40;;;1.17;;
24761;SDS011;12865;51.934;10.330;2022-07-23T16:38:42;1.95;;;1.10;;
24761;SDS011;12865;51.934;10.330;2022-07-23T16:41:27;2.03;;;1.08;;
24761;SDS011;12865;51.934;10.330;2022-07-23T16:44:13;3.47;;;1.25;;
24761;SDS011;12865;51.934;10.330;2022-07-23T16:46:59;2.15;;;1.35;;
24761;SDS011;12865;51.934;10.330;2022-07-23T16:49:45;1.17;;;1.13;;
24761;SDS011;12865;51.934;10.330;2022-07-23T16:52:32;1.42;;;1.30;;
24761;SDS011;12865;51.934;10.330;2022-07-23T16:55:17;1.45;;;1.15;;
24761;SDS011;12865;51.934;10.330;2022-07-23T16:58:04;1.50;;;1.20;;